createdAt,value
2022-11-12T00:02:22.821Z,8.86
2022-11-12T00:06:43.439Z,8.65
2022-11-12T00:11:05.063Z,8.40
2022-11-12T00:15:26.477Z,8.38
2022-11-12T00:19:46.826Z,8.38
2022-11-12T00:24:07.817Z,8.38
2022-11-12T00:28:31.035Z,8.38
2022-11-12T00:32:54.371Z,8.32
2022-11-12T00:37:15.425Z,8.26
2022-11-12T00:41:36.373Z,7.83
2022-11-12T00:45:57.049Z,7.93
2022-11-12T00:50:17.815Z,8.09
2022-11-12T00:54:38.553Z,7.66
2022-11-12T00:58:59.988Z,7.78
2022-11-12T01:03:20.631Z,7.84
2022-11-12T01:07:41.991Z,7.87
2022-11-12T01:12:03.220Z,7.86
2022-11-12T01:16:26.334Z,7.87
2022-11-12T01:20:47.075Z,7.84
2022-11-12T01:25:08.045Z,7.80
2022-11-12T01:29:29.672Z,7.23
2022-11-12T01:33:54.892Z,7.08
2022-11-12T01:38:16.009Z,7.22
2022-11-12T01:42:39.594Z,7.19
2022-11-12T01:47:30.926Z,7.22
2022-11-12T01:51:55.606Z,7.10
2022-11-12T01:56:17.554Z,7.14
2022-11-12T02:00:39.682Z,7.06
2022-11-12T02:05:01.814Z,7.03
2022-11-12T02:09:22.405Z,7.07
2022-11-12T02:14:05.128Z,6.94
2022-11-12T02:18:25.873Z,6.97
2022-11-12T02:22:46.628Z,6.94
2022-11-12T02:27:07.655Z,6.87
2022-11-12T02:31:28.815Z,6.74
2022-11-12T02:35:49.608Z,6.90
2022-11-12T02:40:10.812Z,6.94
2022-11-12T02:44:32.041Z,6.97
2022-11-12T02:48:52.804Z,6.93
2022-11-12T02:53:13.718Z,7.01
2022-11-12T02:57:34.514Z,7.07
2022-11-12T03:01:55.089Z,7.23
2022-11-12T03:06:15.525Z,7.26
2022-11-12T03:10:39.992Z,7.97
2022-11-12T03:15:00.825Z,7.97
2022-11-12T03:19:21.865Z,8.02
2022-11-12T03:23:42.451Z,8.89
2022-11-12T03:28:05.181Z,9.63
2022-11-12T03:32:27.908Z,9.59
2022-11-12T03:36:48.985Z,9.25
2022-11-12T03:41:09.637Z,9.47
2022-11-12T03:45:30.499Z,9.06
2022-11-12T03:49:53.374Z,8.86
2022-11-12T03:54:13.981Z,8.73
2022-11-12T03:58:35.856Z,8.65
2022-11-12T04:02:57.053Z,9.10
2022-11-12T04:07:36.253Z,9.37
2022-11-12T04:12:17.448Z,9.45
2022-11-12T04:16:56.457Z,9.86
2022-11-12T04:21:35.468Z,9.78
2022-11-12T04:26:14.454Z,9.68
2022-11-12T04:30:34.851Z,10.16
2022-11-12T04:34:55.840Z,9.86
2022-11-12T04:39:16.780Z,9.65
2022-11-12T04:43:55.897Z,9.54
2022-11-12T04:48:16.794Z,9.42
2022-11-12T04:52:37.974Z,9.33
2022-11-12T04:56:58.536Z,9.29
2022-11-12T05:01:19.079Z,9.22
2022-11-12T05:05:40.610Z,9.23
2022-11-12T05:10:01.181Z,9.04
2022-11-12T05:14:22.154Z,9.23
2022-11-12T05:18:43.195Z,9.42
2022-11-12T05:23:07.186Z,9.46
2022-11-12T05:27:28.286Z,9.29
2022-11-12T05:31:48.884Z,9.14
2022-11-12T05:36:09.523Z,9.08
2022-11-12T05:40:30.180Z,9.10
2022-11-12T05:44:52.771Z,8.81
2022-11-12T05:49:13.699Z,8.90
2022-11-12T05:53:34.192Z,8.87
2022-11-12T05:57:56.954Z,8.79
2022-11-12T06:02:17.425Z,8.80
2022-11-12T06:06:38.524Z,8.74
2022-11-12T06:11:00.176Z,8.77
2022-11-12T06:20:23.865Z,8.90
2022-11-12T06:24:44.728Z,8.96
2022-11-12T06:29:05.366Z,9.04
2022-11-12T06:33:25.977Z,9.81
2022-11-12T06:37:48.233Z,9.82
2022-11-12T06:42:08.703Z,10.05
2022-11-12T06:46:29.116Z,10.01
2022-11-12T06:50:49.638Z,10.64
2022-11-12T06:55:10.177Z,10.90
2022-11-12T06:59:30.943Z,10.92
2022-11-12T07:03:53.377Z,11.25
2022-11-12T07:08:14.214Z,11.54
2022-11-12T07:12:34.881Z,11.41
2022-11-12T07:16:55.418Z,11.44
2022-11-12T07:21:18.997Z,11.39
2022-11-12T07:25:39.604Z,11.66
2022-11-12T07:30:00.332Z,11.69
2022-11-12T07:34:21.114Z,12.16
2022-11-12T07:38:43.100Z,12.05
2022-11-12T07:43:03.280Z,12.05
2022-11-12T07:47:23.998Z,12.13
2022-11-12T07:51:44.853Z,12.30
2022-11-12T07:56:06.286Z,12.19
2022-11-12T08:00:26.683Z,12.38
2022-11-12T08:04:49.493Z,12.47
2022-11-12T08:09:10.817Z,12.55
2022-11-12T08:13:31.005Z,12.70
2022-11-12T08:17:51.616Z,12.95
2022-11-12T08:22:12.670Z,13.08
2022-11-12T08:26:33.580Z,13.15
2022-11-12T08:30:54.177Z,13.19
2022-11-12T08:35:14.819Z,13.29
2022-11-12T08:39:35.633Z,13.33
2022-11-12T08:43:55.986Z,13.26
2022-11-12T08:48:16.662Z,13.39
2022-11-12T08:52:37.190Z,13.47
2022-11-12T08:56:57.741Z,13.18
2022-11-12T09:01:18.409Z,13.41
2022-11-12T09:05:39.044Z,13.52
2022-11-12T09:10:04.443Z,13.59
2022-11-12T09:14:26.118Z,13.54
2022-11-12T09:19:07.832Z,13.45
2022-11-12T09:23:29.455Z,13.60
2022-11-12T09:27:50.477Z,13.72
2022-11-12T09:32:11.168Z,13.82
2022-11-12T09:36:40.538Z,13.96
2022-11-12T09:41:22.662Z,13.97
2022-11-12T09:45:50.276Z,14.04
2022-11-12T09:50:28.855Z,14.12
2022-11-12T09:55:06.442Z,14.14
2022-11-12T09:59:38.951Z,14.10
2022-11-12T10:04:08.832Z,14.24
2022-11-12T10:08:39.595Z,14.26
2022-11-12T10:13:15.105Z,14.35
2022-11-12T10:17:51.538Z,14.41
2022-11-12T10:22:36.375Z,13.98
2022-11-12T10:26:57.850Z,13.81
2022-11-12T10:31:20.681Z,13.91
2022-11-12T10:35:41.571Z,13.93
2022-11-12T10:40:24.797Z,13.88
2022-11-12T10:44:46.084Z,13.83
2022-11-12T10:49:16.613Z,13.98
2022-11-12T10:53:39.927Z,13.87
2022-11-12T10:58:09.811Z,14.14
2022-11-12T11:02:30.447Z,13.85
2022-11-12T11:07:16.845Z,14.16
2022-11-12T11:11:37.408Z,14.35
2022-11-12T11:16:05.411Z,14.49
2022-11-12T11:20:35.843Z,14.39
2022-11-12T11:25:19.644Z,14.54
2022-11-12T11:29:43.886Z,14.49
2022-11-12T11:34:27.934Z,14.55
2022-11-12T11:39:19.997Z,14.69
2022-11-12T11:43:56.914Z,14.76
2022-11-12T11:48:23.630Z,14.85
2022-11-12T11:53:07.433Z,14.84
2022-11-12T11:57:41.722Z,14.93
2022-11-12T12:02:12.795Z,15.00
2022-11-12T12:06:47.018Z,15.04
2022-11-12T12:11:20.602Z,15.12
2022-11-12T12:16:02.402Z,15.10
2022-11-12T12:20:36.038Z,14.93
2022-11-12T12:25:03.088Z,14.74
2022-11-12T12:29:41.010Z,14.92
2022-11-12T12:34:23.573Z,14.90
2022-11-12T12:38:52.724Z,14.96
2022-11-12T12:43:22.691Z,14.89
2022-11-12T12:47:44.381Z,14.79
2022-11-12T12:52:04.757Z,14.68
2022-11-12T12:56:31.167Z,14.60
2022-11-12T13:01:21.454Z,14.59
2022-11-12T13:05:42.934Z,14.81
2022-11-12T13:10:45.735Z,15.34
2022-11-12T13:15:15.921Z,15.61
2022-11-12T13:19:47.376Z,15.72
2022-11-12T13:24:13.100Z,15.35
2022-11-12T13:28:33.285Z,15.19
2022-11-12T13:32:58.532Z,15.16
2022-11-12T13:37:23.141Z,15.52
2022-11-12T13:42:02.015Z,15.97
2022-11-12T13:46:36.060Z,16.51
2022-11-12T13:51:01.716Z,16.72
2022-11-12T13:55:23.389Z,16.73
2022-11-12T13:59:47.120Z,16.72
2022-11-12T14:04:13.443Z,16.59
2022-11-12T14:08:58.187Z,16.36
2022-11-12T14:13:39.107Z,16.46
2022-11-12T14:18:33.739Z,16.48
2022-11-12T14:22:55.178Z,16.44
2022-11-12T14:27:45.761Z,16.25
2022-11-12T14:32:09.565Z,16.26
2022-11-12T14:36:31.693Z,16.21
2022-11-12T14:40:56.803Z,16.21
2022-11-12T14:45:18.415Z,16.37
2022-11-12T14:49:48.468Z,16.29
2022-11-12T14:54:56.456Z,16.14
2022-11-12T14:59:18.358Z,16.18
2022-11-12T15:03:39.078Z,16.29
2022-11-12T15:08:06.228Z,16.12
2022-11-12T15:12:35.899Z,16.15
2022-11-12T15:17:05.671Z,16.15
2022-11-12T15:21:28.616Z,16.27
2022-11-12T15:26:01.653Z,16.26
2022-11-12T15:30:23.686Z,16.31
2022-11-12T15:34:48.060Z,16.41
2022-11-12T15:39:20.342Z,16.41
2022-11-12T15:43:43.465Z,16.31
2022-11-12T15:48:16.652Z,16.22
2022-11-12T15:52:39.585Z,16.28
2022-11-12T15:57:11.858Z,16.32
2022-11-12T16:01:39.535Z,16.32
2022-11-12T16:06:07.180Z,16.21
2022-11-12T16:10:35.959Z,16.15
2022-11-12T16:14:58.503Z,16.09
2022-11-12T16:19:36.204Z,15.98
2022-11-12T16:24:17.083Z,15.90
2022-11-12T16:28:39.792Z,15.81
2022-11-12T16:33:01.400Z,15.72
2022-11-12T16:37:22.493Z,15.71
2022-11-12T16:41:43.120Z,15.73
2022-11-12T16:46:14.317Z,15.74
2022-11-12T16:50:34.965Z,15.61
2022-11-12T16:55:03.091Z,15.48
2022-11-12T16:59:24.857Z,15.36
2022-11-12T17:03:47.147Z,15.36
2022-11-12T17:08:09.148Z,15.44
2022-11-12T17:12:29.941Z,15.37
2022-11-12T17:16:50.741Z,15.42
2022-11-12T17:21:14.249Z,15.34
2022-11-12T17:25:34.642Z,14.89
2022-11-12T17:29:55.431Z,14.63
2022-11-12T17:34:16.209Z,14.48
2022-11-12T17:38:37.776Z,14.40
2022-11-12T17:42:58.124Z,14.45
2022-11-12T17:47:18.790Z,14.89
2022-11-12T17:51:40.953Z,15.22
2022-11-12T17:56:01.978Z,15.34
2022-11-12T18:00:22.689Z,15.33
2022-11-12T18:04:43.544Z,15.40
2022-11-12T18:09:07.743Z,15.39
2022-11-12T18:13:28.828Z,15.53
2022-11-12T18:17:49.599Z,15.43
2022-11-12T18:22:14.164Z,15.42
2022-11-12T18:26:35.018Z,15.44
2022-11-12T18:31:03.630Z,15.34
2022-11-12T18:35:29.512Z,15.18
2022-11-12T18:39:50.140Z,15.07
2022-11-12T18:44:10.864Z,14.91
2022-11-12T18:48:33.285Z,14.69
2022-11-12T18:52:55.081Z,14.41
2022-11-12T18:57:15.594Z,14.40
2022-11-12T19:01:36.448Z,14.50
2022-11-12T19:05:59.886Z,14.42
2022-11-12T19:10:20.734Z,14.18
2022-11-12T19:14:41.207Z,14.01
2022-11-12T19:19:02.028Z,13.78
2022-11-12T19:23:22.861Z,13.53
2022-11-12T19:27:44.142Z,13.09
2022-11-12T19:32:04.918Z,12.88
2022-11-12T19:36:26.457Z,12.59
2022-11-12T19:40:47.612Z,12.42
2022-11-12T19:45:08.159Z,12.95
2022-11-12T19:49:29.014Z,13.15
2022-11-12T19:53:50.980Z,13.27
2022-11-12T19:58:11.203Z,13.51
2022-11-12T20:02:31.910Z,13.50
2022-11-12T20:06:52.845Z,13.51
2022-11-12T20:11:13.819Z,13.47
2022-11-12T20:15:34.447Z,13.26
2022-11-12T20:19:55.216Z,13.10
2022-11-12T20:24:16.003Z,13.27
2022-11-12T20:28:38.570Z,13.12
2022-11-12T20:32:59.205Z,13.17
2022-11-12T20:37:19.815Z,13.29
2022-11-12T20:41:40.930Z,13.41
2022-11-12T20:46:01.849Z,13.14
2022-11-12T20:50:22.702Z,13.01
2022-11-12T20:54:44.294Z,12.80
2022-11-12T20:59:04.999Z,12.46
2022-11-12T21:03:25.718Z,11.96
2022-11-12T21:07:46.531Z,11.80
2022-11-12T21:12:07.808Z,11.53
2022-11-12T21:16:28.923Z,11.31
2022-11-12T21:20:49.624Z,11.18
2022-11-12T21:25:10.420Z,10.89
2022-11-12T21:29:31.081Z,10.55
2022-11-12T21:33:53.030Z,10.27
2022-11-12T21:38:13.683Z,10.16
2022-11-12T21:42:34.459Z,10.25
2022-11-12T21:46:55.051Z,10.55
2022-11-12T21:51:19.727Z,10.45
2022-11-12T21:55:40.338Z,10.53
2022-11-12T22:00:26.563Z,10.79
2022-11-12T22:04:41.371Z,10.91
2022-11-12T22:09:02.275Z,10.97
2022-11-12T22:13:27.484Z,10.96
2022-11-12T22:17:49.094Z,10.78
2022-11-12T22:22:09.774Z,10.52
2022-11-12T22:26:31.213Z,10.34
2022-11-12T22:30:52.652Z,10.20
2022-11-12T22:35:13.248Z,10.07
2022-11-12T22:39:33.756Z,9.97
2022-11-12T22:44:00.244Z,9.92
2022-11-12T22:48:21.047Z,9.98
2022-11-12T22:52:47.267Z,10.14
2022-11-12T22:57:10.797Z,10.32
2022-11-12T23:01:34.401Z,10.63
2022-11-12T23:06:04.438Z,10.83
2022-11-12T23:10:25.147Z,10.89
2022-11-12T23:14:45.737Z,10.71
2022-11-12T23:19:06.978Z,10.52
2022-11-12T23:23:27.341Z,10.36
2022-11-12T23:27:47.981Z,10.22
2022-11-12T23:32:08.726Z,10.07
2022-11-12T23:36:31.393Z,10.00
2022-11-12T23:40:54.074Z,9.92
2022-11-12T23:45:14.833Z,9.78
2022-11-12T23:49:35.551Z,9.50
2022-11-12T23:53:56.316Z,9.48
2022-11-12T23:58:17.014Z,9.39
